National Weather Service Raw Text Product

Displaying AFOS PIL: TAFDSM Received: 2018-03-08 17:38 UTC


047 
FTUS43 KDMX 081738
TAFDSM
TAF
KDSM 081738Z 0818/0918 31011KT P6SM SCT030 SCT300
     FM090000 30004KT P6SM FEW250
     FM091000 10005KT P6SM BKN080=